Time;durP1;ratioP1;P1;durP2;ratioP2;P2;SDS_P1;SDS_P2;PMS_P1;PMS_P2;Temp;Humidity;BMP_temperature;BMP_pressure;BME280_temperature;BME280_humidity;BME280_pressure;Samples;Min_cycle;Max_cycle;Signal;HPM_P1;HPM_P2
2023/07/11 00:01:17;;;;;;;4.60;1.87;;;12.70;61.40;;;;;;5000375;28;20205;-67
2023/07/11 00:03:44;;;;;;;4.80;1.50;;;12.70;60.90;;;;;;5005747;28;20292;-65
2023/07/11 00:06:17;;;;;;;4.87;1.77;;;12.80;60.80;;;;;;5003236;28;20632;-67
2023/07/11 00:08:44;;;;;;;4.07;1.63;;;12.90;60.40;;;;;;5001457;28;20545;-63
2023/07/11 00:11:14;;;;;;;4.63;1.50;;;13.00;60.00;;;;;;5004289;28;20185;-65
2023/07/11 00:13:42;;;;;;;4.33;1.70;;;13.00;60.20;;;;;;5003055;28;20192;-66
2023/07/11 00:16:11;;;;;;;4.87;1.73;;;13.20;59.50;;;;;;4998991;28;20392;-66
2023/07/11 00:18:39;;;;;;;2.77;1.67;;;13.30;58.90;;;;;;5003768;28;20181;-68
2023/07/11 00:21:07;;;;;;;2.30;1.43;;;13.40;58.10;;;;;;5001246;28;20181;-65
2023/07/11 00:23:34;;;;;;;3.43;1.60;;;13.50;57.60;;;;;;5002249;28;20193;-67
2023/07/11 00:26:02;;;;;;;2.73;1.83;;;13.70;57.10;;;;;;5005853;28;20273;-65
2023/07/11 00:28:30;;;;;;;2.57;1.63;;;13.80;56.60;;;;;;5003513;28;20192;-67
2023/07/11 00:30:57;;;;;;;4.17;1.73;;;14.00;55.90;;;;;;5004235;28;20239;-67
2023/07/11 00:33:25;;;;;;;3.73;1.53;;;13.90;55.10;;;;;;5004298;28;20193;-67
2023/07/11 00:35:54;;;;;;;5.07;1.90;;;13.90;55.10;;;;;;5006608;28;20240;-67
2023/07/11 00:38:22;;;;;;;2.00;1.40;;;14.00;54.80;;;;;;5007106;28;20188;-70
2023/07/11 00:40:51;;;;;;;2.60;1.60;;;14.20;53.80;;;;;;5004465;28;20190;-69
2023/07/11 00:43:21;;;;;;;1.63;1.30;;;14.30;54.20;;;;;;5007336;28;20190;-66
2023/07/11 00:46:12;;;;;;;2.30;1.20;;;14.30;53.20;;;;;;5006696;28;20679;-71
2023/07/11 00:48:48;;;;;;;4.60;1.57;;;14.30;52.70;;;;;;5003292;28;20241;-65
2023/07/11 00:51:24;;;;;;;2.73;1.50;;;14.40;52.80;;;;;;5006373;28;20280;-68
2023/07/11 00:53:52;;;;;;;4.37;1.20;;;14.50;52.40;;;;;;5001992;28;21416;-68
2023/07/11 00:56:27;;;;;;;1.50;1.20;;;14.60;52.00;;;;;;5006078;28;20182;-68
2023/07/11 00:58:55;;;;;;;3.20;1.30;;;14.70;52.40;;;;;;5000392;28;20656;-69
2023/07/11 01:01:24;;;;;;;3.63;1.30;;;14.80;52.10;;;;;;4997235;28;20200;-67
2023/07/11 01:03:53;;;;;;;4.60;1.20;;;15.00;51.00;;;;;;5005136;28;20645;-69
2023/07/11 01:06:25;;;;;;;5.10;1.40;;;14.80;51.40;;;;;;4996938;28;20232;-69
2023/07/11 01:08:54;;;;;;;2.67;1.30;;;15.00;51.40;;;;;;4982780;28;20192;-69
2023/07/11 01:11:24;;;;;;;2.90;1.40;;;15.00;50.90;;;;;;5008294;28;20173;-67
2023/07/11 01:13:52;;;;;;;2.63;1.43;;;15.20;50.60;;;;;;5003868;28;20205;-67
2023/07/11 01:16:21;;;;;;;3.07;1.50;;;15.20;50.40;;;;;;5005706;28;20695;-67
2023/07/11 01:18:48;;;;;;;2.30;1.47;;;15.40;50.40;;;;;;5005614;28;20177;-66
2023/07/11 01:21:21;;;;;;;2.57;1.40;;;15.60;49.70;;;;;;5008960;28;20623;-66
2023/07/11 01:23:48;;;;;;;3.93;1.60;;;15.80;49.50;;;;;;5010888;28;20184;-67
2023/07/11 01:26:16;;;;;;;3.70;1.33;;;15.80;48.60;;;;;;5009058;28;20227;-68
2023/07/11 01:28:44;;;;;;;2.43;1.10;;;16.00;48.70;;;;;;5006357;28;20189;-67
2023/07/11 01:31:13;;;;;;;2.53;1.40;;;15.90;48.50;;;;;;5003398;28;20178;-68
2023/07/11 01:33:40;;;;;;;3.13;1.20;;;16.00;48.90;;;;;;5008364;28;20330;-67
2023/07/11 01:36:08;;;;;;;2.27;1.20;;;16.20;48.10;;;;;;5004508;28;20222;-71
2023/07/11 01:38:35;;;;;;;5.33;1.23;;;16.30;47.70;;;;;;5007701;28;20593;-70
2023/07/11 01:41:02;;;;;;;3.93;1.50;;;16.30;47.20;;;;;;5007391;28;20231;-67
2023/07/11 01:43:30;;;;;;;2.93;1.30;;;16.30;46.80;;;;;;5009026;28;20588;-66
2023/07/11 01:45:57;;;;;;;3.63;1.10;;;16.30;47.20;;;;;;5002886;28;20279;-68
2023/07/11 01:48:24;;;;;;;3.37;1.50;;;16.30;47.00;;;;;;5013447;28;20188;-66
2023/07/11 01:50:52;;;;;;;3.23;1.40;;;16.50;47.20;;;;;;5004242;28;20538;-67
2023/07/11 01:53:20;;;;;;;2.97;1.17;;;16.50;46.60;;;;;;5009921;28;20579;-70
2023/07/11 01:56:02;;;;;;;3.50;1.70;;;16.50;46.70;;;;;;5005921;28;20189;-68
2023/07/11 01:58:30;;;;;;;5.83;1.40;;;16.70;46.00;;;;;;5004683;28;20718;-64
2023/07/11 02:00:59;;;;;;;2.53;1.57;;;16.90;46.60;;;;;;5002562;28;20184;-65
2023/07/11 02:03:26;;;;;;;5.13;1.57;;;17.10;46.20;;;;;;5009715;28;20223;-68
2023/07/11 02:05:53;;;;;;;3.30;1.40;;;17.40;45.40;;;;;;5007186;28;20181;-68
2023/07/11 02:08:21;;;;;;;2.67;1.50;;;17.50;45.20;;;;;;5009826;28;20213;-68
2023/07/11 02:10:48;;;;;;;3.27;1.63;;;17.30;44.60;;;;;;5003783;28;20184;-70
2023/07/11 02:13:15;;;;;;;2.37;1.20;;;17.20;45.10;;;;;;5009789;28;20235;-66
2023/07/11 02:15:43;;;;;;;4.70;1.30;;;17.40;45.20;;;;;;5001364;28;20196;-69
2023/07/11 02:18:11;;;;;;;5.03;1.47;;;17.50;45.00;;;;;;5010666;28;20679;-67
2023/07/11 02:20:43;;;;;;;3.00;1.80;;;17.60;45.10;;;;;;5007198;28;20193;-68
2023/07/11 02:23:12;;;;;;;4.73;1.33;;;17.70;45.50;;;;;;5006237;28;20666;-68
2023/07/11 02:25:40;;;;;;;2.77;1.10;;;17.90;44.90;;;;;;5005496;28;20595;-63
2023/07/11 02:28:08;;;;;;;2.93;1.27;;;17.90;44.30;;;;;;5007237;28;20189;-66
2023/07/11 02:30:35;;;;;;;5.87;1.20;;;18.00;44.30;;;;;;5009790;28;20184;-68
2023/07/11 02:33:03;;;;;;;7.73;1.30;;;18.20;44.10;;;;;;4992301;28;20191;-68
2023/07/11 02:35:30;;;;;;;8.00;1.47;;;18.00;43.70;;;;;;5003910;28;20244;-67
2023/07/11 02:37:58;;;;;;;5.13;1.33;;;18.30;43.40;;;;;;5009655;28;20273;-67
2023/07/11 02:40:25;;;;;;;1.83;1.30;;;18.20;43.40;;;;;;5004784;28;20189;-66
2023/07/11 02:42:52;;;;;;;3.50;1.20;;;18.30;43.40;;;;;;5002697;28;20196;-68
2023/07/11 02:45:20;;;;;;;1.93;1.10;;;18.30;42.90;;;;;;5008726;28;20212;-68
2023/07/11 02:47:47;;;;;;;2.20;1.13;;;18.30;42.60;;;;;;5009189;28;20177;-70
2023/07/11 02:50:15;;;;;;;3.43;1.10;;;18.30;42.70;;;;;;5002838;28;20655;-67
2023/07/11 02:52:42;;;;;;;3.93;1.20;;;18.40;42.80;;;;;;5006433;28;20267;-66
2023/07/11 02:55:09;;;;;;;2.60;1.40;;;18.70;42.90;;;;;;5009388;28;20236;-66
2023/07/11 02:57:42;;;;;;;2.73;1.10;;;18.80;41.60;;;;;;5008547;28;20270;-69
2023/07/11 03:00:11;;;;;;;4.07;1.33;;;18.80;41.70;;;;;;5000125;28;20636;-70
2023/07/11 03:02:38;;;;;;;5.07;1.20;;;19.00;42.10;;;;;;5002097;28;20177;-70
2023/07/11 03:05:06;;;;;;;5.53;1.30;;;18.90;41.80;;;;;;5001931;28;20178;-67
2023/07/11 03:07:33;;;;;;;3.57;1.07;;;18.80;42.00;;;;;;5005451;28;20181;-68
2023/07/11 03:10:01;;;;;;;3.13;1.37;;;18.50;42.80;;;;;;5000696;28;20661;-66
2023/07/11 03:12:28;;;;;;;3.83;1.20;;;18.60;41.50;;;;;;5004207;28;20189;-66
2023/07/11 03:14:55;;;;;;;4.07;1.43;;;18.60;42.00;;;;;;5003482;28;20221;-72
2023/07/11 03:17:23;;;;;;;6.27;1.83;;;18.80;41.90;;;;;;4993445;28;20173;-68
2023/07/11 03:19:50;;;;;;;2.07;1.17;;;19.00;42.20;;;;;;5006224;28;20184;-70
2023/07/11 03:22:18;;;;;;;1.30;1.00;;;19.40;41.30;;;;;;5009134;28;20220;-70
2023/07/11 03:24:46;;;;;;;2.33;1.20;;;19.40;39.50;;;;;;5003555;28;20173;-69
2023/07/11 03:27:13;;;;;;;7.93;1.40;;;19.40;40.00;;;;;;5003332;28;20576;-72
2023/07/11 03:29:40;;;;;;;5.63;1.13;;;19.60;39.70;;;;;;4999995;28;20633;-68
2023/07/11 03:32:10;;;;;;;2.33;1.20;;;19.80;39.30;;;;;;5008927;28;20182;-67
2023/07/11 03:34:38;;;;;;;5.60;1.00;;;19.80;39.70;;;;;;4990283;28;20220;-67
2023/07/11 03:37:06;;;;;;;2.70;1.13;;;20.20;39.50;;;;;;5004654;28;20231;-68
2023/07/11 03:39:33;;;;;;;3.23;1.10;;;20.30;39.00;;;;;;5003742;28;20189;-69
2023/07/11 03:42:00;;;;;;;2.80;1.00;;;20.50;38.60;;;;;;5005399;28;20181;-67
2023/07/11 03:44:27;;;;;;;3.90;1.23;;;20.70;37.30;;;;;;5002302;28;20200;-69
2023/07/11 03:46:55;;;;;;;6.23;1.50;;;21.00;36.90;;;;;;5009401;28;20173;-70
2023/07/11 03:49:22;;;;;;;2.27;1.00;;;21.10;36.60;;;;;;5006072;28;20181;-65
2023/07/11 03:51:49;;;;;;;4.07;1.40;;;20.80;37.10;;;;;;4989268;28;20562;-66
2023/07/11 03:54:17;;;;;;;2.03;1.23;;;21.30;36.00;;;;;;5001619;28;20232;-68
2023/07/11 03:56:44;;;;;;;4.60;1.20;;;21.30;35.70;;;;;;5005183;28;20565;-69
2023/07/11 03:59:12;;;;;;;5.73;1.20;;;21.50;35.60;;;;;;5000500;28;20540;-67
2023/07/11 04:01:39;;;;;;;1.73;1.10;;;21.80;36.00;;;;;;5005032;28;20251;-71
2023/07/11 04:04:06;;;;;;;6.67;1.00;;;22.00;35.30;;;;;;5005957;28;20189;-69
2023/07/11 04:06:34;;;;;;;3.47;1.00;;;22.10;34.00;;;;;;5006764;28;20532;-66
2023/07/11 04:09:01;;;;;;;1.67;1.03;;;22.40;34.10;;;;;;5004558;28;20177;-67
2023/07/11 04:11:28;;;;;;;4.00;1.20;;;22.30;34.50;;;;;;5005472;28;20250;-67
2023/07/11 04:13:56;;;;;;;3.30;0.87;;;22.40;33.90;;;;;;5003351;28;20579;-66
2023/07/11 04:16:23;;;;;;;4.93;1.27;;;22.70;33.40;;;;;;5001706;28;20571;-65
2023/07/11 04:18:51;;;;;;;1.83;0.90;;;22.60;33.90;;;;;;5005669;28;20672;-67
2023/07/11 04:21:18;;;;;;;4.07;1.10;;;22.30;33.10;;;;;;5001907;28;20548;-67
2023/07/11 04:23:46;;;;;;;3.53;1.07;;;22.30;33.80;;;;;;5009280;28;20189;-66
2023/07/11 04:26:14;;;;;;;3.20;1.03;;;22.30;33.60;;;;;;5004564;28;20199;-66
2023/07/11 04:28:41;;;;;;;1.33;0.77;;;22.50;32.60;;;;;;5004116;28;20189;-67
2023/07/11 04:31:08;;;;;;;4.00;1.10;;;22.80;33.10;;;;;;5005197;28;20666;-69
2023/07/11 04:33:36;;;;;;;2.00;1.00;;;23.00;32.60;;;;;;5004628;28;20209;-68
2023/07/11 04:36:15;;;;;;;2.50;0.93;;;23.30;31.40;;;;;;5001019;28;20217;-65
2023/07/11 04:38:44;;;;;;;2.20;0.80;;;22.90;32.60;;;;;;5003625;28;20627;-67
2023/07/11 04:41:12;;;;;;;2.17;1.00;;;23.20;31.90;;;;;;5003545;28;20643;-66
2023/07/11 04:43:40;;;;;;;2.50;1.00;;;24.00;31.10;;;;;;5006345;28;20216;-66
2023/07/11 04:46:07;;;;;;;1.60;0.80;;;24.10;30.60;;;;;;5003798;28;20174;-70
2023/07/11 04:48:36;;;;;;;1.67;1.03;;;23.80;30.50;;;;;;5006816;28;20196;-67
2023/07/11 04:51:08;;;;;;;2.43;0.90;;;23.50;30.80;;;;;;5005183;28;20272;-65
2023/07/11 04:53:35;;;;;;;4.20;0.80;;;23.40;31.60;;;;;;5001663;28;20209;-67
2023/07/11 04:56:05;;;;;;;1.17;0.70;;;23.60;31.20;;;;;;5001990;28;20718;-65
2023/07/11 04:58:34;;;;;;;2.97;0.93;;;23.10;31.50;;;;;;5009800;28;20181;-66
2023/07/11 05:01:03;;;;;;;2.37;1.00;;;23.50;31.50;;;;;;5004081;28;20189;-64
2023/07/11 05:03:31;;;;;;;1.43;0.90;;;23.60;31.00;;;;;;5003379;28;20201;-64
2023/07/11 05:05:59;;;;;;;2.93;1.20;;;24.00;30.50;;;;;;5006275;28;20182;-65
2023/07/11 05:08:26;;;;;;;3.77;1.10;;;23.20;31.70;;;;;;5006256;28;20197;-65
2023/07/11 05:11:03;;;;;;;5.83;0.90;;;23.70;30.80;;;;;;5005846;28;20192;-64
2023/07/11 05:13:32;;;;;;;4.43;0.93;;;23.70;30.80;;;;;;5007911;28;20227;-65
2023/07/11 05:16:03;;;;;;;4.60;0.93;;;23.70;30.60;;;;;;5005316;28;20189;-64
2023/07/11 05:18:30;;;;;;;2.03;0.90;;;24.00;31.50;;;;;;5008522;28;20639;-66
2023/07/11 05:20:59;;;;;;;1.53;0.83;;;24.60;30.20;;;;;;5006243;28;20178;-64
2023/07/11 05:23:28;;;;;;;2.10;0.90;;;25.40;28.60;;;;;;5009225;28;20682;-67
2023/07/11 05:25:56;;;;;;;3.97;1.03;;;25.00;29.40;;;;;;5010232;28;20181;-63
2023/07/11 05:28:25;;;;;;;1.90;1.03;;;24.50;29.70;;;;;;5011319;28;20189;-65
2023/07/11 05:30:53;;;;;;;1.77;1.13;;;24.40;30.00;;;;;;5007801;28;20612;-64
2023/07/11 05:33:21;;;;;;;0.90;0.77;;;24.40;30.10;;;;;;5006672;28;20189;-63
2023/07/11 05:36:31;;;;;;;2.97;1.00;;;25.00;29.70;;;;;;5004604;28;20364;-66
2023/07/11 05:38:38;;;;;;;4.53;1.20;;;24.80;30.20;;;;;;5001616;28;20246;-68
2023/07/11 05:41:06;;;;;;;3.03;1.20;;;25.30;29.20;;;;;;4987914;28;20189;-69
2023/07/11 05:43:33;;;;;;;2.13;0.87;;;25.20;29.20;;;;;;5005922;28;20569;-64
2023/07/11 05:46:01;;;;;;;2.70;1.07;;;25.10;29.90;;;;;;4991584;28;20196;-64
2023/07/11 05:48:29;;;;;;;3.63;1.07;;;24.80;29.80;;;;;;5006635;28;20185;-68
2023/07/11 05:51:02;;;;;;;4.90;1.10;;;24.80;30.00;;;;;;5006081;28;20189;-64
2023/07/11 05:53:30;;;;;;;3.60;1.13;;;24.60;30.00;;;;;;5007345;28;20192;-64
2023/07/11 05:55:58;;;;;;;1.97;1.07;;;24.70;29.00;;;;;;4993879;28;20189;-66
2023/07/11 05:58:28;;;;;;;2.87;0.97;;;25.20;29.20;;;;;;5007382;28;20189;-66
2023/07/11 06:00:57;;;;;;;1.07;0.80;;;25.10;28.80;;;;;;5004894;28;20217;-64
2023/07/11 06:03:26;;;;;;;5.63;1.23;;;24.80;29.50;;;;;;5007873;28;20185;-66
2023/07/11 06:05:54;;;;;;;4.03;1.03;;;25.20;29.60;;;;;;5007257;28;20320;-65
2023/07/11 06:08:21;;;;;;;3.60;0.80;;;24.30;30.30;;;;;;5009137;28;20542;-66
2023/07/11 06:10:49;;;;;;;5.33;1.37;;;23.60;30.70;;;;;;5008908;28;20658;-65
2023/07/11 06:13:17;;;;;;;5.00;1.00;;;22.30;33.00;;;;;;5006721;28;20246;-68
2023/07/11 06:15:44;;;;;;;3.83;1.50;;;21.40;34.70;;;;;;5006226;28;20192;-64
2023/07/11 06:18:11;;;;;;;5.50;1.70;;;20.90;36.00;;;;;;5000473;28;20828;-64
2023/07/11 06:20:39;;;;;;;4.03;2.10;;;20.50;36.40;;;;;;5010977;28;20635;-66
2023/07/11 06:23:06;;;;;;;5.27;1.40;;;20.30;37.40;;;;;;5006282;28;20193;-63
2023/07/11 06:25:33;;;;;;;4.17;1.30;;;19.90;37.70;;;;;;5007994;28;20174;-65
2023/07/11 06:28:01;;;;;;;6.23;1.40;;;20.00;37.70;;;;;;5007530;28;20650;-67
2023/07/11 06:30:28;;;;;;;2.00;1.40;;;19.80;38.80;;;;;;5009922;28;20213;-68
2023/07/11 06:32:56;;;;;;;5.07;1.30;;;19.50;39.30;;;;;;5008629;28;20188;-64
2023/07/11 06:35:23;;;;;;;3.37;1.30;;;19.30;39.40;;;;;;5005086;28;20253;-64
2023/07/11 06:37:50;;;;;;;3.70;1.27;;;19.00;40.20;;;;;;5004291;28;20701;-68
2023/07/11 06:40:19;;;;;;;4.10;1.40;;;18.80;40.80;;;;;;5009756;28;20727;-68
2023/07/11 06:42:46;;;;;;;4.93;1.63;;;18.60;41.50;;;;;;5006850;28;20193;-66
2023/07/11 06:45:14;;;;;;;3.27;1.70;;;18.40;42.00;;;;;;4999717;28;20737;-68
2023/07/11 06:47:41;;;;;;;4.30;1.50;;;18.30;42.80;;;;;;5004638;28;20636;-66
2023/07/11 06:50:09;;;;;;;8.03;1.57;;;18.20;43.30;;;;;;4998242;28;20555;-69
2023/07/11 06:52:37;;;;;;;5.40;1.57;;;18.00;43.50;;;;;;5003684;28;20585;-64
2023/07/11 06:55:04;;;;;;;6.97;2.07;;;17.90;44.00;;;;;;5009217;28;20625;-65
2023/07/11 06:57:32;;;;;;;8.07;1.60;;;17.80;44.50;;;;;;5002507;28;20189;-65
2023/07/11 06:59:59;;;;;;;10.07;1.97;;;17.70;45.40;;;;;;5005866;28;20257;-66
2023/07/11 07:02:26;;;;;;;6.60;1.80;;;17.60;45.80;;;;;;5004190;28;20182;-67
2023/07/11 07:04:55;;;;;;;7.67;1.90;;;17.50;46.30;;;;;;5008237;28;20212;-70
2023/07/11 07:07:22;;;;;;;5.37;1.80;;;17.30;46.10;;;;;;5004156;28;20190;-64
2023/07/11 07:09:51;;;;;;;6.87;2.07;;;17.20;46.30;;;;;;5006754;28;20193;-66
2023/07/11 07:12:18;;;;;;;13.93;2.07;;;17.10;46.90;;;;;;5004629;28;20184;-64
2023/07/11 07:14:45;;;;;;;8.90;1.87;;;17.10;47.50;;;;;;5001573;28;20221;-64
2023/07/11 07:17:13;;;;;;;6.07;2.47;;;17.00;48.30;;;;;;5005392;28;20196;-66
2023/07/11 07:19:41;;;;;;;10.43;2.33;;;16.80;49.00;;;;;;5004951;28;20212;-65
2023/07/11 07:22:08;;;;;;;7.20;2.47;;;16.70;49.60;;;;;;5004661;28;20675;-63
2023/07/11 07:24:36;;;;;;;8.13;2.20;;;16.60;49.70;;;;;;5001234;28;20639;-66
2023/07/11 07:27:04;;;;;;;9.57;2.80;;;16.50;50.20;;;;;;5002692;28;20178;-71
2023/07/11 07:29:31;;;;;;;9.17;3.10;;;16.40;50.30;;;;;;5007301;28;20180;-66
2023/07/11 07:32:00;;;;;;;6.73;2.40;;;16.30;50.40;;;;;;5004548;28;20266;-66
2023/07/11 07:34:28;;;;;;;5.20;2.20;;;16.30;50.40;;;;;;5003783;28;20670;-67
2023/07/11 07:36:55;;;;;;;8.83;3.07;;;16.20;50.60;;;;;;4992891;28;20267;-64
2023/07/11 07:39:22;;;;;;;9.43;2.53;;;16.20;51.60;;;;;;5006150;28;20588;-65
2023/07/11 07:41:53;;;;;;;5.87;2.50;;;16.00;51.80;;;;;;4992954;28;20294;-66
2023/07/11 07:44:21;;;;;;;8.27;2.90;;;15.90;51.80;;;;;;5009464;28;20202;-63
2023/07/11 07:46:48;;;;;;;5.57;2.80;;;15.90;52.10;;;;;;5002800;28;20302;-68
2023/07/11 07:49:16;;;;;;;12.57;3.53;;;15.80;52.70;;;;;;5004373;28;20246;-66
2023/07/11 07:51:43;;;;;;;8.53;2.60;;;15.70;53.20;;;;;;5005993;28;20211;-64
2023/07/11 07:54:11;;;;;;;5.77;2.60;;;15.70;53.80;;;;;;5006370;28;20233;-68
2023/07/11 07:56:38;;;;;;;15.60;2.97;;;15.70;53.80;;;;;;5009285;28;20624;-65
2023/07/11 07:59:05;;;;;;;12.10;3.23;;;15.60;54.40;;;;;;5004448;28;20193;-66
2023/07/11 08:01:33;;;;;;;8.33;2.77;;;15.50;54.50;;;;;;5008431;28;20191;-64
2023/07/11 08:04:00;;;;;;;6.53;2.70;;;15.50;55.00;;;;;;5008558;28;20286;-66
2023/07/11 08:06:28;;;;;;;8.37;2.80;;;15.40;53.60;;;;;;5004521;28;20643;-63
2023/07/11 08:08:55;;;;;;;8.17;3.40;;;15.40;54.60;;;;;;5006387;28;20192;-67
2023/07/11 08:11:22;;;;;;;13.77;6.17;;;15.40;54.80;;;;;;5003149;28;20185;-64
2023/07/11 08:13:50;;;;;;;24.50;13.70;;;15.40;55.00;;;;;;5005104;28;20706;-66
2023/07/11 08:16:18;;;;;;;33.80;21.53;;;15.30;54.80;;;;;;5005152;28;20188;-66
2023/07/11 08:18:46;;;;;;;53.53;35.90;;;15.30;55.30;;;;;;4986806;28;20183;-64
2023/07/11 08:21:13;;;;;;;52.50;32.57;;;15.20;54.70;;;;;;5006076;28;20194;-63
2023/07/11 08:23:41;;;;;;;55.40;36.93;;;15.20;55.50;;;;;;5005073;28;20185;-63
2023/07/11 08:26:10;;;;;;;50.43;36.83;;;15.10;56.00;;;;;;5007543;28;20186;-68
2023/07/11 08:28:37;;;;;;;36.67;26.33;;;15.00;56.00;;;;;;5008749;28;20185;-67
2023/07/11 08:31:05;;;;;;;26.40;17.27;;;15.00;56.40;;;;;;5005399;28;20649;-68
2023/07/11 08:33:32;;;;;;;13.27;8.00;;;14.90;56.40;;;;;;5007673;28;20184;-66
2023/07/11 08:36:00;;;;;;;9.53;4.23;;;14.90;56.60;;;;;;5009275;28;20232;-66
2023/07/11 08:38:27;;;;;;;14.93;6.80;;;14.80;57.00;;;;;;5009978;28;20191;-65
2023/07/11 08:40:55;;;;;;;18.80;10.17;;;14.80;57.20;;;;;;5014915;28;20193;-65
2023/07/11 08:43:30;;;;;;;13.83;9.27;;;14.80;57.80;;;;;;5009165;28;20609;-65
2023/07/11 08:46:10;;;;;;;16.97;8.00;;;14.70;58.30;;;;;;5012320;28;20636;-66
2023/07/11 08:48:45;;;;;;;11.53;6.90;;;14.60;58.30;;;;;;5002147;28;20189;-69
2023/07/11 08:51:39;;;;;;;12.50;7.47;;;14.50;58.80;;;;;;5010120;28;20184;-64
2023/07/11 08:54:10;;;;;;;8.83;6.23;;;14.50;59.10;;;;;;5010902;28;20676;-68
2023/07/11 08:56:47;;;;;;;11.47;6.40;;;14.50;59.10;;;;;;5011051;28;20216;-68
2023/07/11 08:59:30;;;;;;;13.73;6.40;;;14.40;59.60;;;;;;5010158;28;20169;-67
2023/07/11 09:02:28;;;;;;;11.53;5.60;;;14.50;59.70;;;;;;5005935;28;20178;-68
2023/07/11 09:04:57;;;;;;;16.07;4.87;;;14.50;59.50;;;;;;5017185;28;20276;-67
2023/07/11 09:07:42;;;;;;;9.77;4.60;;;14.50;59.60;;;;;;5004103;28;20562;-68
2023/07/11 09:10:32;;;;;;;11.03;4.47;;;14.50;59.90;;;;;;5005032;28;20192;-65
2023/07/11 09:13:23;;;;;;;9.47;3.67;;;14.40;59.60;;;;;;5004410;28;20178;-67
2023/07/11 09:16:16;;;;;;;13.80;4.60;;;14.30;60.00;;;;;;5006116;28;20560;-66
2023/07/11 09:18:54;;;;;;;11.87;4.87;;;14.20;59.90;;;;;;5003075;28;20201;-65
2023/07/11 09:21:31;;;;;;;11.70;6.27;;;14.00;60.70;;;;;;5009103;28;20185;-64
2023/07/11 09:24:07;;;;;;;15.50;6.60;;;13.90;61.50;;;;;;5003071;28;20634;-68
2023/07/11 09:26:44;;;;;;;12.20;6.43;;;13.80;62.10;;;;;;5007535;28;20193;-66
2023/07/11 09:29:12;;;;;;;14.73;7.33;;;13.80;63.00;;;;;;5008200;28;20314;-65
2023/07/11 09:31:46;;;;;;;12.63;6.77;;;13.50;64.60;;;;;;5006450;28;20197;-68
2023/07/11 09:34:23;;;;;;;11.40;5.87;;;13.20;64.40;;;;;;5009883;28;20215;-65
2023/07/11 09:36:51;;;;;;;15.67;6.07;;;13.40;61.90;;;;;;5003724;28;20241;-65
2023/07/11 09:39:31;;;;;;;9.70;4.90;;;13.60;61.40;;;;;;5007980;28;20181;-66
2023/07/11 09:42:20;;;;;;;12.50;4.67;;;13.70;59.90;;;;;;5006237;28;20193;-65
2023/07/11 09:45:12;;;;;;;9.03;4.47;;;13.80;59.50;;;;;;5008350;28;20209;-65
2023/07/11 09:47:41;;;;;;;7.20;4.53;;;13.70;60.00;;;;;;4995266;28;20288;-67
2023/07/11 09:50:27;;;;;;;9.27;4.90;;;13.70;59.90;;;;;;5008298;28;20213;-67
2023/07/11 09:52:58;;;;;;;7.53;4.50;;;13.70;60.60;;;;;;5007192;28;20181;-67
2023/07/11 09:55:34;;;;;;;10.47;4.60;;;13.60;60.10;;;;;;5006994;28;20228;-66
2023/07/11 09:58:03;;;;;;;8.80;4.73;;;13.50;60.60;;;;;;5008536;28;20182;-68
2023/07/11 10:00:30;;;;;;;8.83;4.77;;;13.40;61.50;;;;;;5006427;28;20196;-64
2023/07/11 10:03:01;;;;;;;11.23;5.20;;;13.40;61.20;;;;;;5007176;28;20276;-66
2023/07/11 10:05:28;;;;;;;10.30;5.17;;;13.40;61.20;;;;;;5005276;28;20184;-65
2023/07/11 10:08:14;;;;;;;13.50;4.90;;;13.30;61.70;;;;;;5005945;28;20652;-64
2023/07/11 10:10:54;;;;;;;10.57;4.70;;;13.30;62.30;;;;;;5007068;28;20188;-65
2023/07/11 10:13:23;;;;;;;8.63;5.13;;;13.30;62.10;;;;;;5008247;28;20177;-65
2023/07/11 10:15:54;;;;;;;9.73;4.53;;;13.20;62.50;;;;;;5004187;28;20666;-66
2023/07/11 10:18:28;;;;;;;9.37;4.60;;;13.20;63.00;;;;;;5007523;28;20516;-66
2023/07/11 10:21:02;;;;;;;9.87;6.67;;;13.20;62.30;;;;;;5009170;28;20540;-68
2023/07/11 10:23:29;;;;;;;14.70;7.30;;;13.10;62.30;;;;;;5003613;28;20189;-65
2023/07/11 10:26:15;;;;;;;12.37;7.20;;;13.10;63.90;;;;;;5005990;28;20181;-65
2023/07/11 10:28:47;;;;;;;18.57;6.30;;;13.20;63.50;;;;;;5004891;28;20264;-66
2023/07/11 10:31:30;;;;;;;12.40;5.40;;;13.20;62.90;;;;;;5000172;28;20185;-67
2023/07/11 10:34:04;;;;;;;7.33;5.00;;;13.10;63.20;;;;;;5004034;28;20233;-66
2023/07/11 10:36:38;;;;;;;12.23;5.13;;;13.20;63.50;;;;;;5008141;28;20700;-63
2023/07/11 10:39:15;;;;;;;10.43;5.00;;;13.10;64.30;;;;;;5000140;28;20182;-64
2023/07/11 10:41:56;;;;;;;7.77;4.73;;;13.10;63.70;;;;;;5010599;28;20243;-65
2023/07/11 10:44:46;;;;;;;11.27;4.57;;;13.00;64.10;;;;;;5005480;28;20587;-64
2023/07/11 10:47:23;;;;;;;12.20;5.67;;;13.00;64.30;;;;;;5002948;28;20192;-64
2023/07/11 10:49:54;;;;;;;13.20;6.00;;;13.00;64.40;;;;;;4990524;28;20204;-65
2023/07/11 10:52:23;;;;;;;10.53;4.97;;;13.00;64.80;;;;;;5001022;28;20194;-66
2023/07/11 10:55:07;;;;;;;14.70;5.37;;;13.00;65.70;;;;;;4999197;28;20236;-63
2023/07/11 10:57:40;;;;;;;11.10;5.00;;;13.00;66.20;;;;;;5009866;28;20191;-64
2023/07/11 11:00:41;;;;;;;9.53;5.30;;;13.10;66.30;;;;;;5003374;28;20189;-64
2023/07/11 11:03:37;;;;;;;14.00;6.40;;;13.10;66.10;;;;;;5006567;28;20199;-64
2023/07/11 11:06:28;;;;;;;13.00;5.73;;;13.00;66.10;;;;;;5006540;28;20273;-63
2023/07/11 11:09:06;;;;;;;16.03;6.47;;;13.00;66.50;;;;;;5005630;28;20830;-65
2023/07/11 11:12:08;;;;;;;13.83;6.90;;;12.80;66.20;;;;;;5009139;28;20197;-65
2023/07/11 11:14:56;;;;;;;11.20;5.77;;;12.80;66.50;;;;;;5002696;28;20222;-65
2023/07/11 11:17:46;;;;;;;14.77;5.90;;;12.70;66.90;;;;;;5008598;28;20181;-64
2023/07/11 11:20:21;;;;;;;9.80;4.40;;;12.70;66.80;;;;;;5007189;28;20272;-65
2023/07/11 11:23:01;;;;;;;11.47;4.70;;;12.70;67.00;;;;;;5005551;28;20660;-66
2023/07/11 11:25:46;;;;;;;12.83;4.60;;;12.70;66.80;;;;;;5006349;28;20185;-67
2023/07/11 11:28:55;;;;;;;8.13;4.77;;;12.70;67.00;;;;;;5000831;28;20177;-66
2023/07/11 11:31:28;;;;;;;10.47;5.30;;;12.60;67.30;;;;;;4998445;28;20259;-66
2023/07/11 11:34:20;;;;;;;16.00;4.90;;;12.60;67.50;;;;;;5005161;28;20224;-64
2023/07/11 11:37:26;;;;;;;11.53;4.87;;;12.50;67.80;;;;;;5011642;28;20551;-65
2023/07/11 11:40:24;;;;;;;11.40;5.33;;;12.50;68.00;;;;;;5007585;28;20608;-65
2023/07/11 11:42:59;;;;;;;9.87;4.93;;;12.50;68.60;;;;;;5000754;28;20201;-64
2023/07/11 11:45:28;;;;;;;13.67;5.30;;;12.50;69.00;;;;;;5008500;28;20259;-66
2023/07/11 11:47:57;;;;;;;15.13;5.83;;;12.50;69.00;;;;;;5005787;28;20229;-64
2023/07/11 11:50:28;;;;;;;11.47;5.17;;;12.50;69.00;;;;;;5005668;28;20189;-65
2023/07/11 11:52:58;;;;;;;12.17;5.33;;;12.50;69.30;;;;;;5007764;28;20546;-65
2023/07/11 11:55:39;;;;;;;11.37;5.30;;;12.50;69.20;;;;;;5004072;28;20219;-67
2023/07/11 11:58:16;;;;;;;14.90;5.50;;;12.50;69.50;;;;;;5002967;28;20181;-63
2023/07/11 12:00:50;;;;;;;13.03;5.40;;;12.50;69.40;;;;;;4998518;28;20663;-67
2023/07/11 12:03:38;;;;;;;11.07;5.13;;;12.50;69.20;;;;;;5003037;28;20173;-65
2023/07/11 12:06:36;;;;;;;16.23;6.00;;;12.30;69.50;;;;;;4995996;28;20193;-66
2023/07/11 12:09:39;;;;;;;18.73;6.67;;;12.30;70.30;;;;;;5001050;28;20189;-65
2023/07/11 12:12:13;;;;;;;15.90;5.70;;;12.30;70.60;;;;;;4984693;28;20275;-64
2023/07/11 12:14:53;;;;;;;16.73;6.67;;;12.30;70.50;;;;;;5002272;28;20676;-68
2023/07/11 12:17:36;;;;;;;19.73;6.07;;;12.30;70.40;;;;;;5007133;28;20805;-67
2023/07/11 12:20:09;;;;;;;12.50;5.93;;;12.20;70.90;;;;;;5000904;28;21935;-68
2023/07/11 12:22:39;;;;;;;14.47;5.80;;;12.20;71.20;;;;;;5008463;28;20189;-66
2023/07/11 12:25:30;;;;;;;10.20;5.33;;;12.20;71.30;;;;;;5005918;28;20211;-65
2023/07/11 12:28:00;;;;;;;12.43;5.80;;;12.20;71.10;;;;;;5002809;28;20188;-67
2023/07/11 12:30:40;;;;;;;11.53;6.13;;;12.10;71.30;;;;;;5006867;28;20177;-67
2023/07/11 12:33:33;;;;;;;14.07;5.53;;;12.00;71.70;;;;;;5003039;28;20231;-67
2023/07/11 12:36:30;;;;;;;14.00;5.70;;;11.90;72.00;;;;;;5001199;28;20240;-68
2023/07/11 12:39:18;;;;;;;16.40;5.83;;;11.90;72.20;;;;;;5003598;28;20185;-68
2023/07/11 12:42:20;;;;;;;11.57;5.20;;;11.90;72.60;;;;;;4999590;28;20688;-70
2023/07/11 12:44:49;;;;;;;17.57;5.80;;;11.80;72.50;;;;;;4975499;28;20233;-67
2023/07/11 12:47:19;;;;;;;11.47;5.30;;;11.80;72.70;;;;;;5002486;28;20243;-71
2023/07/11 12:49:50;;;;;;;12.40;5.60;;;11.80;72.90;;;;;;5005070;28;20186;-67
2023/07/11 12:52:21;;;;;;;17.43;7.00;;;11.80;73.10;;;;;;5004901;28;20185;-66
2023/07/11 12:54:49;;;;;;;10.70;5.17;;;11.70;73.60;;;;;;5007723;28;20543;-66
2023/07/11 12:57:20;;;;;;;13.87;5.33;;;11.70;73.60;;;;;;5001886;28;20189;-65
2023/07/11 12:59:50;;;;;;;17.17;5.57;;;11.60;73.90;;;;;;5006774;28;20224;-66
2023/07/11 13:02:27;;;;;;;10.60;5.83;;;11.60;74.20;;;;;;5003152;28;20213;-70
2023/07/11 13:04:58;;;;;;;11.60;5.00;;;11.50;74.30;;;;;;5003415;28;20197;-64
2023/07/11 13:07:32;;;;;;;11.50;5.30;;;11.50;74.20;;;;;;5007538;28;20188;-67